createdAt,value
2022-08-31T00:00:44.581Z,43.48
2022-08-31T00:01:44.646Z,37.72
2022-08-31T00:02:44.560Z,49.51
2022-08-31T00:03:44.569Z,56.71
2022-08-31T00:04:44.598Z,45.55
2022-08-31T00:05:44.555Z,43.50
2022-08-31T00:06:44.572Z,57.03
2022-08-31T00:07:44.539Z,44.66
2022-08-31T00:08:44.521Z,53.02
2022-08-31T00:09:44.526Z,42.69
2022-08-31T00:10:45.098Z,41.03
2022-08-31T00:11:44.651Z,57.52
2022-08-31T00:12:44.506Z,43.79
2022-08-31T00:13:44.486Z,56.49
2022-08-31T00:14:44.480Z,53.41
2022-08-31T00:15:44.472Z,47.72
2022-08-31T00:16:44.586Z,49.10
2022-08-31T00:17:44.460Z,50.09
2022-08-31T00:18:44.450Z,48.16
2022-08-31T00:19:44.446Z,50.72
2022-08-31T00:20:44.441Z,57.24
2022-08-31T00:21:44.887Z,50.86
2022-08-31T00:22:44.414Z,43.74
2022-08-31T00:23:44.414Z,35.46
2022-08-31T00:24:44.403Z,42.99
2022-08-31T00:25:44.390Z,40.85
2022-08-31T00:26:44.419Z,45.32
2022-08-31T00:27:44.391Z,49.92
2022-08-31T00:28:44.371Z,47.09
2022-08-31T00:29:44.369Z,44.81
2022-08-31T00:30:44.354Z,52.45
2022-08-31T00:31:44.407Z,46.83
2022-08-31T00:32:44.335Z,49.59
2022-08-31T00:33:44.342Z,49.48
2022-08-31T00:34:44.321Z,40.31
2022-08-31T00:35:44.314Z,40.07
2022-08-31T00:36:44.334Z,45.79
2022-08-31T00:37:44.302Z,52.79
2022-08-31T00:38:44.289Z,45.43
2022-08-31T00:39:44.283Z,47.01
2022-08-31T00:40:45.120Z,42.09
2022-08-31T00:41:44.298Z,50.39
2022-08-31T00:42:44.265Z,61.32
2022-08-31T00:43:44.248Z,51.33
2022-08-31T00:44:44.244Z,56.64
2022-08-31T00:45:44.351Z,48.54
2022-08-31T00:46:44.257Z,43.86
2022-08-31T00:47:44.216Z,49.86
2022-08-31T00:48:44.247Z,49.97
2022-08-31T00:49:44.202Z,44.24
2022-08-31T00:50:44.197Z,47.91
2022-08-31T00:51:44.225Z,36.51
2022-08-31T00:52:44.192Z,46.57
2022-08-31T00:53:44.192Z,52.14
2022-08-31T00:54:44.170Z,49.81
2022-08-31T00:55:44.167Z,40.33
2022-08-31T00:56:44.200Z,41.45
2022-08-31T00:57:44.165Z,52.21
2022-08-31T00:58:44.140Z,50.57
2022-08-31T00:59:44.129Z,53.93
2022-08-31T01:00:44.153Z,55.49
2022-08-31T01:01:44.191Z,49.09
2022-08-31T01:02:44.135Z,47.95
2022-08-31T01:03:44.097Z,43.12
2022-08-31T01:04:44.093Z,41.37
2022-08-31T01:05:44.079Z,50.82
2022-08-31T01:06:44.075Z,51.50
2022-08-31T01:07:44.102Z,49.42
2022-08-31T01:08:44.075Z,49.36
2022-08-31T01:09:52.684Z,49.35
2022-08-31T01:10:45.038Z,49.38
2022-08-31T01:11:44.031Z,45.61
2022-08-31T01:12:44.070Z,48.27
2022-08-31T01:13:44.085Z,52.55
2022-08-31T01:14:44.009Z,50.78
2022-08-31T01:15:44.013Z,44.05
2022-08-31T01:16:44.043Z,46.81
2022-08-31T01:17:44.017Z,51.46
2022-08-31T01:18:43.976Z,52.03
2022-08-31T01:19:43.981Z,51.69
2022-08-31T01:20:48.805Z,48.87
2022-08-31T01:21:44.956Z,43.01
2022-08-31T01:22:43.994Z,44.41
2022-08-31T01:23:43.957Z,43.29
2022-08-31T01:24:43.956Z,45.81
2022-08-31T01:25:43.922Z,47.90
2022-08-31T01:26:43.941Z,40.44
2022-08-31T01:27:44.936Z,40.08
2022-08-31T01:28:43.897Z,39.68
2022-08-31T01:29:43.900Z,49.28
2022-08-31T01:30:43.887Z,50.27
2022-08-31T01:31:43.988Z,59.07
2022-08-31T01:32:43.895Z,48.00
2022-08-31T01:33:43.847Z,47.72
2022-08-31T01:34:44.853Z,57.37
2022-08-31T01:35:43.865Z,49.78
2022-08-31T01:36:43.849Z,48.91
2022-08-31T01:37:43.865Z,56.66
2022-08-31T01:38:43.824Z,48.80
2022-08-31T01:39:43.817Z,49.89
2022-08-31T01:40:43.879Z,50.57
2022-08-31T01:41:43.797Z,46.37
2022-08-31T01:42:43.823Z,53.13
2022-08-31T01:43:43.776Z,53.42
2022-08-31T01:44:43.834Z,53.13
2022-08-31T01:45:43.770Z,51.08
2022-08-31T01:46:43.829Z,44.15
2022-08-31T01:47:43.777Z,51.71
2022-08-31T01:48:43.740Z,59.47
2022-08-31T01:49:43.745Z,45.28
2022-08-31T01:50:43.731Z,47.67
2022-08-31T01:51:43.720Z,44.27
2022-08-31T01:52:43.735Z,48.31
2022-08-31T01:53:45.820Z,47.50
2022-08-31T01:54:43.694Z,54.84
2022-08-31T01:55:43.695Z,46.34
2022-08-31T01:56:43.685Z,51.04
2022-08-31T01:57:43.704Z,46.72
2022-08-31T01:58:45.135Z,59.57
2022-08-31T01:59:43.675Z,53.09
2022-08-31T02:00:43.686Z,49.87
2022-08-31T02:01:43.846Z,57.43
2022-08-31T02:02:43.713Z,59.16
2022-08-31T02:03:43.672Z,56.92
2022-08-31T02:04:43.621Z,51.71
2022-08-31T02:05:43.607Z,48.79
2022-08-31T02:06:43.603Z,49.74
2022-08-31T02:07:43.613Z,51.86
2022-08-31T02:08:43.583Z,40.74
2022-08-31T02:09:43.575Z,55.17
2022-08-31T02:10:43.569Z,48.36
2022-08-31T02:11:43.572Z,47.57
2022-08-31T02:12:43.576Z,45.47
2022-08-31T02:13:43.551Z,50.76
2022-08-31T02:14:43.532Z,52.78
2022-08-31T02:15:43.533Z,63.50
2022-08-31T02:16:43.578Z,53.63
2022-08-31T02:17:43.542Z,46.74
2022-08-31T02:18:43.510Z,41.66
2022-08-31T02:19:43.502Z,52.46
2022-08-31T02:20:43.501Z,53.23
2022-08-31T02:21:43.487Z,45.57
2022-08-31T02:22:43.506Z,47.74
2022-08-31T02:23:43.482Z,50.16
2022-08-31T02:24:43.471Z,57.75
2022-08-31T02:25:43.450Z,51.48
2022-08-31T02:26:43.448Z,45.59
2022-08-31T02:27:43.469Z,45.59
2022-08-31T02:28:43.431Z,49.09
2022-08-31T02:29:43.423Z,50.19
2022-08-31T02:30:43.426Z,51.02
2022-08-31T02:31:43.484Z,50.81
2022-08-31T02:32:43.432Z,54.12
2022-08-31T02:33:43.402Z,44.67
2022-08-31T02:34:43.409Z,46.36
2022-08-31T02:35:43.378Z,52.44
2022-08-31T02:36:43.370Z,49.58
2022-08-31T02:37:43.394Z,46.40
2022-08-31T02:38:43.356Z,58.24
2022-08-31T02:39:43.396Z,59.77
2022-08-31T02:40:43.430Z,47.97
2022-08-31T02:41:43.340Z,50.97
2022-08-31T02:42:52.828Z,60.25
2022-08-31T02:43:44.312Z,53.44
2022-08-31T02:44:43.307Z,55.69
2022-08-31T02:45:43.296Z,49.98
2022-08-31T02:46:43.397Z,51.59
2022-08-31T02:47:43.281Z,50.88
2022-08-31T02:48:43.299Z,50.40
2022-08-31T02:49:43.260Z,40.86
2022-08-31T02:50:43.261Z,48.97
2022-08-31T02:51:43.244Z,52.18
2022-08-31T02:52:43.228Z,53.89
2022-08-31T02:53:44.258Z,46.10
2022-08-31T02:54:43.225Z,44.29
2022-08-31T02:55:43.217Z,51.25
2022-08-31T02:56:43.207Z,55.39
2022-08-31T02:57:43.202Z,52.52
2022-08-31T02:58:43.222Z,54.99
2022-08-31T02:59:43.200Z,50.39
2022-08-31T03:00:43.243Z,46.83
2022-08-31T03:01:43.256Z,51.55
2022-08-31T03:02:43.193Z,55.97
2022-08-31T03:03:46.234Z,55.68
2022-08-31T03:04:44.146Z,59.63
2022-08-31T03:05:43.132Z,52.78
2022-08-31T03:06:43.131Z,49.32
2022-08-31T03:07:43.120Z,53.32
2022-08-31T03:08:43.136Z,48.06
2022-08-31T03:09:43.102Z,50.87
2022-08-31T03:10:43.097Z,55.27
2022-08-31T03:11:43.090Z,47.16
2022-08-31T03:12:43.078Z,58.75
2022-08-31T03:13:43.101Z,59.55
2022-08-31T03:14:43.067Z,50.49
2022-08-31T03:15:43.113Z,43.85
2022-08-31T03:16:43.053Z,49.49
2022-08-31T03:17:43.042Z,54.62
2022-08-31T03:18:43.060Z,58.81
2022-08-31T03:19:43.034Z,55.14
2022-08-31T03:20:43.017Z,50.74
2022-08-31T03:21:43.014Z,55.28
2022-08-31T03:22:45.692Z,61.52
2022-08-31T03:23:43.019Z,55.06
2022-08-31T03:24:42.990Z,56.11
2022-08-31T03:25:42.988Z,58.56
2022-08-31T03:26:42.977Z,60.74
2022-08-31T03:27:42.970Z,52.56
2022-08-31T03:28:42.999Z,55.93
2022-08-31T03:29:42.961Z,60.07
2022-08-31T03:30:42.988Z,53.05
2022-08-31T03:31:42.931Z,56.12
2022-08-31T03:32:42.933Z,60.28
2022-08-31T03:33:42.946Z,53.95
2022-08-31T03:34:42.916Z,53.26
2022-08-31T03:35:42.901Z,58.41
2022-08-31T03:36:42.899Z,57.57
2022-08-31T03:37:42.898Z,59.69
2022-08-31T03:38:42.914Z,55.28
2022-08-31T03:39:42.878Z,53.99
2022-08-31T03:40:42.917Z,61.88
2022-08-31T03:41:42.858Z,59.17
2022-08-31T03:42:42.859Z,55.96
2022-08-31T03:43:42.874Z,57.53
2022-08-31T03:44:42.842Z,52.86
2022-08-31T03:45:42.837Z,57.36
2022-08-31T03:46:42.862Z,58.20
2022-08-31T03:47:44.910Z,56.45
2022-08-31T03:48:42.837Z,56.09
2022-08-31T03:49:42.806Z,56.30
2022-08-31T03:50:42.807Z,55.98
2022-08-31T03:51:42.803Z,57.74
2022-08-31T03:52:42.784Z,56.09
2022-08-31T03:53:42.803Z,55.62
2022-08-31T03:54:42.775Z,56.86
2022-08-31T03:55:42.753Z,52.13
2022-08-31T03:56:42.771Z,54.59
2022-08-31T03:57:42.746Z,56.04
2022-08-31T03:58:42.760Z,56.15
2022-08-31T03:59:42.732Z,53.21
2022-08-31T04:00:42.726Z,56.72
2022-08-31T04:01:42.778Z,58.16
2022-08-31T04:02:42.736Z,51.36
2022-08-31T04:03:42.716Z,53.90
2022-08-31T04:04:42.714Z,55.44
2022-08-31T04:05:42.680Z,55.16
2022-08-31T04:06:42.670Z,51.14
2022-08-31T04:07:43.222Z,54.11
2022-08-31T04:08:42.683Z,56.96
2022-08-31T04:09:42.642Z,54.70
2022-08-31T04:10:42.637Z,53.48
2022-08-31T04:11:44.588Z,57.39
2022-08-31T04:12:42.621Z,56.54
2022-08-31T04:13:42.636Z,58.12
2022-08-31T04:14:42.608Z,54.78
2022-08-31T04:15:42.636Z,55.17
2022-08-31T04:16:42.592Z,63.01
2022-08-31T04:17:42.584Z,57.43
2022-08-31T04:18:42.600Z,54.61
2022-08-31T04:19:42.559Z,58.11
2022-08-31T04:20:43.561Z,61.11
2022-08-31T04:21:44.204Z,57.14
2022-08-31T04:22:42.541Z,58.24
2022-08-31T04:23:42.565Z,56.95
2022-08-31T04:24:42.556Z,58.06
2022-08-31T04:25:42.532Z,57.15
2022-08-31T04:26:42.513Z,56.02
2022-08-31T04:27:42.512Z,56.67
2022-08-31T04:28:42.531Z,57.07
2022-08-31T04:29:42.498Z,54.52
2022-08-31T04:30:42.538Z,58.29
2022-08-31T04:31:42.491Z,57.63
2022-08-31T04:32:42.466Z,57.32
2022-08-31T04:33:42.584Z,54.63
2022-08-31T04:34:42.462Z,58.71
2022-08-31T04:35:42.446Z,57.23
2022-08-31T04:36:42.436Z,55.25
2022-08-31T04:37:46.493Z,59.88
2022-08-31T04:38:43.451Z,54.13
2022-08-31T04:39:50.770Z,57.23
2022-08-31T04:40:43.475Z,56.67
2022-08-31T04:41:42.399Z,61.00
2022-08-31T04:42:42.393Z,58.47
2022-08-31T04:43:42.387Z,57.52
2022-08-31T04:44:42.410Z,59.68
2022-08-31T04:45:42.489Z,56.00
2022-08-31T04:46:42.366Z,58.81
2022-08-31T04:47:42.353Z,57.73
2022-08-31T04:48:42.347Z,58.82
2022-08-31T04:49:42.360Z,59.33
2022-08-31T04:50:43.093Z,61.91
2022-08-31T04:51:43.321Z,57.71
2022-08-31T04:52:42.315Z,56.37
2022-08-31T04:53:42.331Z,58.25
2022-08-31T04:54:42.311Z,54.49
2022-08-31T04:55:42.300Z,61.58
2022-08-31T04:56:42.288Z,56.93
2022-08-31T04:57:42.279Z,57.66
2022-08-31T04:58:42.299Z,57.21
2022-08-31T04:59:42.266Z,55.75
2022-08-31T05:00:42.266Z,55.98
2022-08-31T05:01:43.114Z,64.14
2022-08-31T05:02:42.285Z,59.00
2022-08-31T05:03:42.256Z,58.19
2022-08-31T05:04:42.223Z,57.00
2022-08-31T05:05:42.221Z,57.23
2022-08-31T05:06:42.213Z,62.76
2022-08-31T05:07:42.204Z,56.05
2022-08-31T05:08:42.226Z,57.47
2022-08-31T05:09:42.232Z,54.49
2022-08-31T05:10:42.211Z,58.23
2022-08-31T05:11:42.174Z,58.44
2022-08-31T05:12:42.166Z,53.27
2022-08-31T05:13:42.175Z,58.65
2022-08-31T05:14:42.151Z,58.53
2022-08-31T05:15:42.182Z,57.51
2022-08-31T05:16:42.130Z,57.38
2022-08-31T05:17:42.130Z,61.18
2022-08-31T05:18:42.151Z,57.36
2022-08-31T05:19:42.111Z,56.56
2022-08-31T05:20:42.161Z,58.60
2022-08-31T05:21:42.095Z,58.53
2022-08-31T05:22:42.084Z,58.70
2022-08-31T05:23:42.115Z,57.76
2022-08-31T05:24:42.075Z,60.71
2022-08-31T05:25:42.069Z,57.38
2022-08-31T05:26:42.342Z,58.53
2022-08-31T05:27:42.075Z,54.92
2022-08-31T05:28:42.079Z,54.38
2022-08-31T05:29:42.038Z,58.47
2022-08-31T05:30:42.078Z,55.74
2022-08-31T05:31:42.022Z,55.51
2022-08-31T05:32:42.008Z,56.91
2022-08-31T05:33:42.016Z,52.42
2022-08-31T05:34:42.020Z,57.58
2022-08-31T05:35:41.995Z,57.03
2022-08-31T05:36:42.075Z,55.97
2022-08-31T05:37:41.974Z,54.02
2022-08-31T05:38:41.964Z,55.43
2022-08-31T05:39:41.991Z,60.63
2022-08-31T05:40:42.023Z,61.15
2022-08-31T05:41:41.947Z,56.24
2022-08-31T05:42:41.933Z,55.78
2022-08-31T05:43:41.931Z,56.75
2022-08-31T05:44:41.944Z,61.35
2022-08-31T05:45:41.910Z,55.23
2022-08-31T05:46:42.002Z,57.82
2022-08-31T05:47:41.898Z,58.72
2022-08-31T05:48:41.894Z,59.72
2022-08-31T05:49:42.906Z,57.49
2022-08-31T05:50:41.873Z,57.81
2022-08-31T05:51:41.871Z,58.11
2022-08-31T05:52:41.852Z,56.40
2022-08-31T05:53:41.843Z,56.26
2022-08-31T05:54:41.861Z,57.54
2022-08-31T05:55:41.838Z,57.81
2022-08-31T05:56:41.825Z,60.79
2022-08-31T05:57:41.819Z,57.59
2022-08-31T05:58:41.818Z,60.59
2022-08-31T05:59:41.828Z,59.10
2022-08-31T06:00:41.795Z,59.03
2022-08-31T06:01:41.816Z,56.43
2022-08-31T06:02:41.781Z,56.05
2022-08-31T06:03:41.773Z,56.20
2022-08-31T06:04:41.834Z,57.73
2022-08-31T06:05:41.818Z,53.85
2022-08-31T06:06:41.746Z,60.41
2022-08-31T06:07:41.735Z,59.19
2022-08-31T06:08:41.732Z,57.07
2022-08-31T06:09:41.866Z,56.33
2022-08-31T06:10:41.718Z,54.95
2022-08-31T06:11:41.707Z,55.61
2022-08-31T06:12:41.708Z,60.73
2022-08-31T06:13:41.685Z,60.58
2022-08-31T06:14:44.759Z,56.10
2022-08-31T06:15:42.336Z,55.42
2022-08-31T06:16:41.757Z,56.77
2022-08-31T06:17:41.665Z,57.29
2022-08-31T06:18:41.651Z,57.77
2022-08-31T06:19:41.672Z,58.34
2022-08-31T06:20:41.642Z,61.70
2022-08-31T06:21:49.806Z,59.35
2022-08-31T06:22:42.635Z,59.03
2022-08-31T06:23:41.619Z,57.45
2022-08-31T06:24:41.627Z,57.86
2022-08-31T06:25:42.601Z,56.59
2022-08-31T06:26:41.601Z,60.75
2022-08-31T06:27:41.595Z,56.22
2022-08-31T06:28:41.577Z,57.90
2022-08-31T06:29:41.594Z,61.00
2022-08-31T06:30:54.923Z,58.26
2022-08-31T06:31:43.579Z,55.57
2022-08-31T06:32:41.548Z,56.80
2022-08-31T06:33:41.549Z,56.15
2022-08-31T06:34:41.557Z,58.95
2022-08-31T06:35:41.536Z,59.68
2022-08-31T06:36:41.520Z,61.21
2022-08-31T06:37:41.513Z,58.04
2022-08-31T06:38:41.509Z,53.47
2022-08-31T06:39:41.517Z,54.33
2022-08-31T06:40:41.520Z,58.80
2022-08-31T06:41:41.481Z,58.01
2022-08-31T06:42:41.478Z,58.80
2022-08-31T06:43:41.463Z,60.63
2022-08-31T06:44:41.479Z,59.19
2022-08-31T06:45:41.458Z,54.14
2022-08-31T06:46:41.505Z,57.66
2022-08-31T06:47:41.440Z,54.38
2022-08-31T06:48:41.432Z,58.94
2022-08-31T06:49:41.445Z,57.35
2022-08-31T06:50:41.417Z,58.99
2022-08-31T06:51:41.411Z,58.47
2022-08-31T06:52:41.401Z,58.12
2022-08-31T06:53:41.411Z,58.63
2022-08-31T06:54:41.405Z,59.12
2022-08-31T06:55:41.373Z,55.74
2022-08-31T06:56:41.361Z,56.38
2022-08-31T06:57:41.359Z,57.72
2022-08-31T06:58:41.357Z,57.62
2022-08-31T06:59:41.365Z,60.45
2022-08-31T07:00:41.337Z,59.12
2022-08-31T07:01:41.421Z,55.64
2022-08-31T07:02:41.414Z,58.70
2022-08-31T07:03:41.334Z,62.44
2022-08-31T07:04:41.330Z,56.73
2022-08-31T07:05:41.294Z,56.88
2022-08-31T07:06:41.290Z,63.02
2022-08-31T07:07:41.288Z,55.15
2022-08-31T07:08:41.273Z,58.36
2022-08-31T07:09:41.313Z,56.19
2022-08-31T07:10:41.262Z,57.15
2022-08-31T07:11:44.630Z,56.88
2022-08-31T07:12:42.244Z,56.35
2022-08-31T07:13:41.234Z,57.42
2022-08-31T07:14:41.264Z,58.93
2022-08-31T07:15:41.227Z,56.75
2022-08-31T07:16:41.311Z,55.83
2022-08-31T07:17:41.209Z,55.79
2022-08-31T07:18:41.201Z,58.69
2022-08-31T07:19:41.409Z,62.09
2022-08-31T07:20:41.228Z,59.05
2022-08-31T07:21:41.261Z,64.72
2022-08-31T07:22:41.172Z,58.18
2022-08-31T07:23:41.157Z,56.18
2022-08-31T07:24:41.178Z,57.92
2022-08-31T07:25:41.151Z,61.58
2022-08-31T07:26:41.138Z,59.73
2022-08-31T07:27:41.130Z,57.65
2022-08-31T07:28:41.122Z,59.65
2022-08-31T07:29:41.140Z,64.37
2022-08-31T07:30:41.155Z,57.78
2022-08-31T07:31:41.095Z,58.08
2022-08-31T07:32:41.094Z,56.61
2022-08-31T07:33:41.082Z,57.23
2022-08-31T07:34:41.100Z,59.28
2022-08-31T07:35:41.066Z,58.31
2022-08-31T07:36:41.059Z,57.42
2022-08-31T07:37:41.049Z,56.35
2022-08-31T07:38:41.038Z,56.62
2022-08-31T07:39:41.058Z,59.00
2022-08-31T07:40:41.159Z,58.29
2022-08-31T07:41:41.020Z,65.22
2022-08-31T07:42:41.016Z,58.60
2022-08-31T07:43:40.999Z,55.31
2022-08-31T07:44:41.029Z,58.88
2022-08-31T07:45:41.026Z,57.07
2022-08-31T07:46:40.976Z,57.94
2022-08-31T07:47:40.964Z,60.52
2022-08-31T07:48:40.961Z,56.52
2022-08-31T07:49:40.974Z,54.71
2022-08-31T07:50:40.942Z,59.36
2022-08-31T07:51:40.934Z,59.09
2022-08-31T07:52:40.971Z,57.16
2022-08-31T07:53:40.927Z,57.59
2022-08-31T07:54:40.926Z,58.14
2022-08-31T07:55:40.930Z,59.08
2022-08-31T07:56:40.903Z,59.90
2022-08-31T07:57:40.899Z,58.08
2022-08-31T07:58:40.882Z,55.52
2022-08-31T07:59:40.874Z,56.10
2022-08-31T08:00:40.886Z,55.97
2022-08-31T08:01:40.922Z,53.51
2022-08-31T08:02:40.871Z,56.24
2022-08-31T08:03:40.851Z,58.88
2022-08-31T08:04:40.833Z,56.69
2022-08-31T08:05:40.893Z,52.44
2022-08-31T08:06:40.819Z,57.73
2022-08-31T08:07:40.823Z,57.96
2022-08-31T08:08:40.808Z,59.07
2022-08-31T08:09:40.795Z,58.65
2022-08-31T08:10:40.813Z,56.40
2022-08-31T08:11:40.771Z,59.51
2022-08-31T08:12:41.776Z,56.72
2022-08-31T08:13:40.767Z,56.24
2022-08-31T08:14:40.748Z,56.52
2022-08-31T08:15:40.785Z,56.76
2022-08-31T08:16:40.779Z,57.85
2022-08-31T08:17:40.733Z,59.29
2022-08-31T08:18:40.725Z,56.94
2022-08-31T08:19:40.779Z,58.03
2022-08-31T08:20:40.746Z,60.04
2022-08-31T08:21:40.711Z,57.47
2022-08-31T08:22:54.216Z,57.86
2022-08-31T08:23:42.695Z,58.85
2022-08-31T08:24:40.852Z,59.17
2022-08-31T08:25:40.695Z,56.53
2022-08-31T08:26:40.669Z,58.29
2022-08-31T08:27:40.657Z,57.69
2022-08-31T08:28:41.286Z,57.44
2022-08-31T08:29:40.649Z,58.57
2022-08-31T08:30:40.657Z,58.35
2022-08-31T08:31:40.737Z,62.76
2022-08-31T08:32:40.622Z,56.35
2022-08-31T08:33:40.683Z,55.16
2022-08-31T08:34:40.606Z,58.90
2022-08-31T08:35:40.618Z,60.55
2022-08-31T08:36:40.591Z,57.93
2022-08-31T08:37:57.211Z,57.18
2022-08-31T08:38:42.572Z,60.59
2022-08-31T08:39:40.563Z,59.78
2022-08-31T08:40:40.632Z,57.09
2022-08-31T08:41:40.548Z,57.87
2022-08-31T08:42:40.546Z,57.39
2022-08-31T08:43:40.555Z,59.08
2022-08-31T08:44:40.524Z,57.33
2022-08-31T08:45:40.586Z,56.28
2022-08-31T08:46:40.667Z,58.33
2022-08-31T08:47:40.522Z,57.62
2022-08-31T08:48:40.488Z,54.80
2022-08-31T08:49:40.492Z,55.80
2022-08-31T08:50:40.506Z,57.25
2022-08-31T08:51:40.484Z,59.21
2022-08-31T08:52:40.462Z,58.33
2022-08-31T08:53:40.459Z,57.26
2022-08-31T08:54:40.448Z,57.63
2022-08-31T08:55:40.481Z,58.00
2022-08-31T08:56:40.429Z,58.02
2022-08-31T08:57:40.425Z,57.22
2022-08-31T08:58:40.416Z,60.45
2022-08-31T08:59:40.408Z,55.68
2022-08-31T09:00:40.437Z,50.80
2022-08-31T09:01:40.465Z,58.85
2022-08-31T09:02:40.519Z,58.28
2022-08-31T09:03:40.409Z,59.45
2022-08-31T09:04:40.377Z,59.66
2022-08-31T09:05:40.446Z,58.90
2022-08-31T09:06:46.010Z,56.23
2022-08-31T09:07:41.339Z,58.27
2022-08-31T09:08:40.334Z,58.46
2022-08-31T09:09:40.340Z,56.70
2022-08-31T09:10:40.452Z,57.12
2022-08-31T09:11:40.308Z,58.67
2022-08-31T09:12:40.300Z,59.20
2022-08-31T09:13:40.302Z,54.63
2022-08-31T09:14:40.313Z,58.32
2022-08-31T09:15:40.496Z,58.00
2022-08-31T09:16:40.271Z,55.54
2022-08-31T09:17:40.267Z,52.94
2022-08-31T09:18:40.255Z,57.44
2022-08-31T09:19:40.258Z,61.20
2022-08-31T09:20:40.443Z,57.14
2022-08-31T09:21:40.248Z,56.11
2022-08-31T09:22:40.225Z,57.84
2022-08-31T09:23:40.214Z,56.93
2022-08-31T09:24:40.206Z,57.52
2022-08-31T09:25:40.430Z,55.89
2022-08-31T09:26:40.190Z,58.14
2022-08-31T09:27:40.193Z,58.63
2022-08-31T09:28:40.191Z,57.89
2022-08-31T09:29:40.172Z,56.69
2022-08-31T09:30:40.453Z,56.50
2022-08-31T09:31:40.268Z,56.36
2022-08-31T09:32:40.148Z,58.39
2022-08-31T09:33:40.135Z,58.20
2022-08-31T09:34:40.132Z,58.36
2022-08-31T09:35:40.151Z,62.19
2022-08-31T09:36:40.117Z,56.16
2022-08-31T09:37:40.108Z,56.85
2022-08-31T09:38:40.099Z,62.56
2022-08-31T09:39:40.090Z,57.03
2022-08-31T09:40:40.193Z,57.68
2022-08-31T09:41:40.074Z,54.83
2022-08-31T09:42:40.074Z,58.62
2022-08-31T09:43:41.196Z,54.03
2022-08-31T09:44:40.052Z,55.23
2022-08-31T09:45:42.305Z,57.62
2022-08-31T09:46:41.040Z,60.29
2022-08-31T09:47:40.035Z,59.43
2022-08-31T09:48:40.030Z,58.32
2022-08-31T09:49:40.886Z,58.36
2022-08-31T09:50:40.036Z,57.81
2022-08-31T09:51:39.993Z,54.89
2022-08-31T09:52:40.992Z,57.67
2022-08-31T09:53:39.991Z,55.76
2022-08-31T09:54:44.417Z,54.77
2022-08-31T09:55:41.997Z,55.49
2022-08-31T09:56:39.961Z,58.19
2022-08-31T09:57:39.955Z,57.66
2022-08-31T09:58:39.952Z,58.36
2022-08-31T09:59:39.937Z,60.10
2022-08-31T10:00:39.935Z,57.61
2022-08-31T10:01:39.997Z,51.14
2022-08-31T10:02:39.923Z,52.15
2022-08-31T10:03:39.902Z,60.98
2022-08-31T10:04:39.949Z,55.66
2022-08-31T10:05:39.890Z,55.61
2022-08-31T10:06:39.919Z,57.97
2022-08-31T10:07:39.881Z,58.20
2022-08-31T10:08:39.880Z,57.54
2022-08-31T10:09:39.862Z,57.17
2022-08-31T10:10:39.897Z,58.45
2022-08-31T10:11:39.855Z,54.23
2022-08-31T10:12:39.845Z,54.71
2022-08-31T10:13:39.840Z,57.13
2022-08-31T10:14:39.826Z,54.83
2022-08-31T10:15:39.894Z,57.04
2022-08-31T10:16:39.805Z,57.47
2022-08-31T10:17:39.806Z,57.25
2022-08-31T10:18:39.834Z,58.15
2022-08-31T10:19:39.805Z,58.44
2022-08-31T10:20:39.837Z,56.10
2022-08-31T10:21:39.821Z,57.77
2022-08-31T10:22:39.784Z,59.84
2022-08-31T10:23:39.759Z,56.15
2022-08-31T10:24:39.758Z,55.41
2022-08-31T10:25:39.775Z,58.29
2022-08-31T10:26:39.735Z,56.18
2022-08-31T10:27:39.732Z,55.84
2022-08-31T10:28:39.725Z,58.56
2022-08-31T10:29:39.716Z,57.10
2022-08-31T10:30:39.834Z,54.80
2022-08-31T10:31:39.697Z,55.18
2022-08-31T10:32:39.699Z,59.04
2022-08-31T10:33:39.683Z,58.46
2022-08-31T10:34:39.672Z,61.54
2022-08-31T10:35:39.705Z,57.09
2022-08-31T10:36:39.699Z,58.37
2022-08-31T10:37:39.647Z,58.20
2022-08-31T10:38:39.640Z,56.67
2022-08-31T10:39:39.631Z,55.66
2022-08-31T10:40:39.736Z,56.80
2022-08-31T10:41:39.635Z,57.41
2022-08-31T10:42:39.606Z,56.84
2022-08-31T10:43:40.602Z,57.92
2022-08-31T10:44:39.607Z,58.34
2022-08-31T10:45:39.585Z,62.18
2022-08-31T10:46:39.674Z,54.86
2022-08-31T10:47:39.566Z,57.59
2022-08-31T10:48:39.560Z,52.82
2022-08-31T10:49:39.554Z,58.61
2022-08-31T10:50:39.607Z,59.88
2022-08-31T10:51:39.548Z,62.87
2022-08-31T10:52:39.545Z,55.81
2022-08-31T10:53:40.092Z,57.56
2022-08-31T10:54:39.514Z,59.54
2022-08-31T10:55:39.625Z,54.96
2022-08-31T10:56:39.502Z,58.33
2022-08-31T10:57:39.487Z,58.20
2022-08-31T10:58:39.487Z,56.71
2022-08-31T10:59:39.481Z,60.80
2022-08-31T11:00:39.494Z,57.54
2022-08-31T11:01:39.517Z,51.23
2022-08-31T11:02:39.460Z,57.34
2022-08-31T11:03:39.444Z,56.22
2022-08-31T11:04:39.530Z,59.03
2022-08-31T11:05:39.520Z,59.84
2022-08-31T11:06:39.416Z,55.80
2022-08-31T11:07:39.421Z,55.00
2022-08-31T11:08:39.403Z,58.29
2022-08-31T11:09:39.397Z,59.28
2022-08-31T11:10:39.678Z,58.04
2022-08-31T11:11:43.480Z,60.53
2022-08-31T11:12:39.373Z,59.27
2022-08-31T11:13:39.362Z,57.28
2022-08-31T11:14:39.362Z,57.80
2022-08-31T11:15:39.407Z,60.72
2022-08-31T11:16:39.347Z,58.44
2022-08-31T11:17:39.341Z,57.17
2022-08-31T11:18:39.330Z,63.81
2022-08-31T11:19:39.320Z,58.16
2022-08-31T11:20:39.484Z,58.82
2022-08-31T11:21:39.298Z,58.35
2022-08-31T11:22:39.296Z,56.73
2022-08-31T11:23:42.177Z,58.16
2022-08-31T11:24:40.280Z,55.76
2022-08-31T11:25:39.711Z,56.03
2022-08-31T11:26:39.266Z,58.46
2022-08-31T11:27:39.262Z,59.37
2022-08-31T11:28:39.252Z,55.43
2022-08-31T11:29:39.238Z,57.95
2022-08-31T11:30:42.036Z,55.71
2022-08-31T11:31:40.292Z,58.69
2022-08-31T11:32:39.254Z,56.02
2022-08-31T11:33:47.383Z,57.97
2022-08-31T11:34:40.217Z,57.95
2022-08-31T11:35:42.183Z,56.80
2022-08-31T11:36:39.189Z,59.39
2022-08-31T11:37:39.200Z,60.29
2022-08-31T11:38:39.185Z,60.30
2022-08-31T11:39:39.172Z,57.56
2022-08-31T11:40:39.275Z,61.51
2022-08-31T11:41:39.167Z,57.36
2022-08-31T11:42:39.144Z,56.70
2022-08-31T11:43:39.130Z,56.93
2022-08-31T11:44:39.124Z,53.85
2022-08-31T11:45:39.178Z,56.70
2022-08-31T11:46:40.052Z,57.78
2022-08-31T11:47:39.115Z,57.56
2022-08-31T11:48:39.097Z,57.96
2022-08-31T11:49:39.086Z,63.48
2022-08-31T11:50:39.109Z,58.58
2022-08-31T11:51:41.390Z,59.83
2022-08-31T11:52:40.066Z,57.81
2022-08-31T11:53:39.057Z,55.89
2022-08-31T11:54:39.059Z,63.04
2022-08-31T11:55:40.075Z,60.24
2022-08-31T11:59:36.636Z,58.51
2022-08-31T12:00:36.648Z,57.71
2022-08-31T12:01:36.612Z,56.77
2022-08-31T12:02:36.649Z,57.68
2022-08-31T12:03:36.596Z,58.33
2022-08-31T12:04:36.604Z,57.86
2022-08-31T12:05:36.709Z,55.87
2022-08-31T12:06:37.711Z,52.28
2022-08-31T12:07:37.708Z,58.81
2022-08-31T12:08:37.699Z,59.14
2022-08-31T12:09:37.741Z,58.09
2022-08-31T12:10:37.745Z,55.79
2022-08-31T12:11:37.682Z,56.51
2022-08-31T12:12:37.699Z,59.57
2022-08-31T12:13:37.659Z,59.30
2022-08-31T12:14:37.672Z,57.53
2022-08-31T12:15:37.687Z,58.36
2022-08-31T12:16:37.661Z,59.47
2022-08-31T12:17:37.632Z,59.57
2022-08-31T12:18:37.628Z,58.18
2022-08-31T12:19:37.625Z,57.90
2022-08-31T12:20:37.639Z,60.51
2022-08-31T12:21:37.599Z,59.62
2022-08-31T12:22:37.588Z,59.01
2022-08-31T12:23:37.586Z,58.92
2022-08-31T12:24:37.581Z,58.62
2022-08-31T12:25:37.599Z,58.92
2022-08-31T12:26:41.803Z,58.91
2022-08-31T12:27:38.566Z,59.45
2022-08-31T12:28:37.547Z,59.32
2022-08-31T12:29:37.542Z,59.05
2022-08-31T12:30:37.570Z,57.74
2022-08-31T12:31:37.590Z,58.40
2022-08-31T12:32:37.529Z,60.50
2022-08-31T12:33:37.514Z,58.40
2022-08-31T12:34:37.518Z,56.80
2022-08-31T12:35:37.523Z,59.62
2022-08-31T12:36:37.491Z,57.68
2022-08-31T12:37:37.475Z,58.16
2022-08-31T12:38:37.474Z,58.18
2022-08-31T12:39:37.464Z,62.48
2022-08-31T12:40:37.533Z,59.20
2022-08-31T12:41:37.445Z,61.36
2022-08-31T12:42:37.436Z,57.25
2022-08-31T12:43:37.436Z,58.89
2022-08-31T12:44:37.427Z,58.32
2022-08-31T12:45:37.459Z,59.39
2022-08-31T12:46:37.511Z,58.62
2022-08-31T12:47:37.407Z,60.60
2022-08-31T12:48:37.412Z,59.68
2022-08-31T12:49:37.423Z,57.22
2022-08-31T12:50:37.413Z,58.30
2022-08-31T12:51:37.371Z,60.31
2022-08-31T12:52:37.399Z,61.56
2022-08-31T12:53:37.370Z,59.30
2022-08-31T12:54:37.401Z,59.46
2022-08-31T12:55:37.369Z,56.75